METAR Data
IDs: Format: Raw Decoded Include TAF

Data at: 2119 UTC 24 Mar 2019

KCPT 242115Z AUTO 16010G16KT 10SM BKN050 BKN060 BKN070 27/17 A2998 RMK AO2
KCPT 242055Z AUTO 16011KT 10SM SCT055 SCT090 26/17 A2999 RMK AO2
KCPT 242035Z AUTO 17013KT 10SM CLR 27/16 A2999 RMK AO2
KCPT 242015Z AUTO 19013G20KT 10SM FEW048 FEW065 27/16 A2999 RMK AO2
KCPT 241955Z AUTO 20013KT 10SM FEW046 SCT055 SCT065 27/16 A3000 RMK AO2
KCPT 241935Z AUTO 18012G17KT 10SM FEW041 FEW047 SCT055 27/17 A3000 RMK AO2
KCPT 241915Z AUTO 18011G18KT 10SM SCT041 SCT047 SCT055 26/17 A3002 RMK AO2
KCPT 241855Z AUTO 16010G16KT 10SM SCT039 BKN045 26/18 A3002 RMK AO2
KCPT 241835Z AUTO 20011KT 10SM FEW038 SCT044 26/17 A3003 RMK AO2
KCPT 241815Z AUTO 22011KT 10SM FEW037 FEW043 26/17 A3004 RMK AO2
KCPT 241755Z AUTO 20012KT 10SM SCT035 26/17 A3004 RMK AO2
KCPT 241735Z AUTO 22010G15KT 10SM SCT034 25/17 A3005 RMK AO2
KCPT 241715Z AUTO 23010G18KT 10SM FEW031 25/17 A3006 RMK AO2
KCPT 241655Z AUTO 23011G19KT 10SM SCT030 24/17 A3006 RMK AO2
KCPT 241635Z AUTO 22010KT 10SM OVC028 23/18 A3006 RMK AO2
KCPT 241615Z AUTO 21013G18KT 10SM BKN020 BKN026 22/18 A3007 RMK AO2
KCPT 241555Z AUTO 21011G17KT 10SM OVC017 21/18 A3007 RMK AO2
KCPT 241535Z AUTO 19013KT 10SM BKN015 OVC021 20/18 A3008 RMK AO2
KCPT 241515Z AUTO 19012KT 10SM SCT013 20/18 A3008 RMK AO2
KCPT 241455Z AUTO 18011G17KT 10SM FEW007 SCT013 19/19 A3008 RMK AO2
KCPT 241435Z AUTO 18011KT 8SM BKN005 BKN008 BKN013 18/18 A3008 RMK AO2
KCPT 241415Z AUTO 17011KT 6SM BR OVC004 17/17 A3007 RMK AO2
KCPT 241355Z AUTO 17009G14KT 5SM BR OVC004 17/17 A3007 RMK AO2
KCPT 241335Z AUTO 17008KT 4SM BR OVC003 16/16 A3007 RMK AO2
KCPT 241315Z AUTO 17007KT 4SM BR OVC003 16/16 A3006 RMK AO2
KCPT 241255Z AUTO 17006KT 4SM BR OVC004 16/16 A3006 RMK AO2
KCPT 241235Z AUTO 16006KT 5SM BR OVC005 15/15 A3006 RMK AO2
KCPT 241215Z AUTO 18005KT 7SM SCT006 15/15 A3005 RMK AO2
KCPT 241155Z AUTO 17006KT 10SM CLR 15/15 A3005 RMK AO2
KCPT 241135Z AUTO 18007KT 10SM CLR 16/16 A3004 RMK AO2
KCPT 241115Z AUTO 18006KT 10SM CLR 16/16 A3004 RMK AO2
KCPT 241055Z AUTO 17008KT 10SM CLR 16/16 A3003 RMK AO2
KCPT 241035Z AUTO 17007KT 10SM FEW018 16/16 A3003 RMK AO2
KCPT 241015Z AUTO 16007KT 10SM FEW018 FEW032 16/16 A3003 RMK AO2
KCPT 240955Z AUTO 17008KT 10SM FEW020 SCT032 16/16 A3003 RMK AO2
KCPT 240915Z AUTO 17009KT 10SM FEW019 SCT034 16/16 A3003 RMK AO2
KCPT 240855Z AUTO 17008KT 10SM SCT034 17/16 A3003 RMK AO2
KCPT 240835Z AUTO 17009KT 10SM BKN034 17/16 A3004 RMK AO2
KCPT 240815Z AUTO 17010KT 10SM SCT019 OVC034 17/16 A3004 RMK AO2
KCPT 240755Z AUTO 17008G14KT 10SM BKN019 OVC035 18/16 A3005 RMK AO2
KCPT 240735Z AUTO 17009G14KT 10SM OVC035 18/16 A3005 RMK AO2
KCPT 240715Z AUTO 17011KT 10SM FEW025 OVC035 18/16 A3005 RMK AO2
KCPT 240655Z AUTO 17010KT 10SM BKN024 OVC032 18/16 A3005 RMK AO2
KCPT 240635Z AUTO 17009KT 10SM OVC026 18/16 A3005 RMK AO2
KCPT 240615Z AUTO 17008KT 10SM OVC026 18/16 A3005 RMK AO2
KCPT 240555Z AUTO 18007KT 10SM OVC024 18/16 A3005 RMK AO2
KCPT 240535Z AUTO 18007KT 10SM BKN024 OVC032 18/16 A3005 RMK AO2
KCPT 240515Z AUTO 17007KT 10SM FEW026 OVC032 18/16 A3004 RMK AO2
KCPT 240455Z AUTO 17009KT 10SM OVC032 18/16 A3004 RMK AO2
KCPT 240435Z AUTO 17010KT 10SM OVC031 18/16 A3004 RMK AO2
KCPT 240415Z AUTO 17011G16KT 10SM BKN030 18/16 A3004 RMK AO2
KCPT 240355Z AUTO 16014KT 10SM FEW031 18/16 A3003 RMK AO2
KCPT 240335Z AUTO 16012G18KT 10SM FEW027 FEW032 18/16 A3002 RMK AO2
KCPT 240315Z AUTO 16012G18KT 10SM CLR 18/16 A3001 RMK AO2
KCPT 240255Z AUTO 16011KT 10SM FEW034 18/16 A3002 RMK AO2
KCPT 240235Z AUTO 16010KT 10SM SCT034 18/16 A3002 RMK AO2
KCPT 240215Z AUTO 16011KT 10SM FEW029 FEW034 SCT065 18/16 A3000 RMK AO2
KCPT 240155Z AUTO 17012KT 10SM FEW034 SCT065 18/16 A3000 RMK AO2
KCPT 240135Z AUTO 17012KT 10SM FEW070 18/17 A3000 RMK AO2
KCPT 240115Z AUTO 16013KT 10SM CLR 18/17 A3000 RMK AO2
KCPT 240055Z AUTO 16012KT 10SM CLR 18/17 A3000 RMK AO2
KCPT 240035Z AUTO 16010KT 10SM CLR 18/17 A3001 RMK AO2
KCPT 240015Z AUTO 16013G21KT 10SM CLR 19/17 A3000 RMK AO2
KCPT 232355Z AUTO 16013KT 10SM BKN028 BKN033 19/17 A3000 RMK AO2 P0001
KCPT 232335Z AUTO 16007KT 10SM OVC026 19/18 A3001 RMK AO2
KCPT 232315Z AUTO 20006KT 4SM -DZ OVC025 18/18 A3002 RMK AO2 LTG DSNT NE
KCPT 232255Z AUTO 20006KT 2SM -RA OVC024 19/17 A3002 RMK AO2 P0001 VIS 1 1/4V3
KCPT 232235Z AUTO 20008KT 3SM -RA OVC024 19/17 A3001 RMK AO2
KCPT 232215Z AUTO 19009KT 10SM OVC026 20/16 A3000 RMK AO2
KCPT 232155Z AUTO 19010KT 10SM OVC025 20/16 A3000 RMK AO2
KCPT 232135Z AUTO 17009KT 10SM OVC024 20/16 A3001 RMK AO2
KCPT 232115Z AUTO 17009G15KT 10SM OVC024 20/16 A3001 RMK AO2
KCPT 232055Z AUTO 17010KT 10SM OVC024 19/16 A3001 RMK AO2
KCPT 232035Z AUTO 17011G17KT 10SM OVC024 20/16 A3002 RMK AO2 LTG DSNT NE
KCPT 232015Z AUTO 18015KT 10SM OVC024 19/16 A3003 RMK AO2
KCPT 231955Z AUTO 17017KT 10SM FEW018 OVC024 20/16 A3003 RMK AO2
KCPT 231935Z AUTO 18015G22KT 10SM FEW020 BKN026 BKN040 20/16 A3004 RMK AO2
KCPT 231915Z AUTO 18016KT 10SM FEW017 SCT022 BKN027 20/16 A3005 RMK AO2
KCPT 231855Z AUTO 17014G20KT 10SM OVC019 19/16 A3006 RMK AO2
KCPT 231835Z AUTO 17011G17KT 10SM OVC016 19/16 A3007 RMK AO2
KCPT 231815Z AUTO 17012KT 10SM OVC017 18/16 A3008 RMK AO2
KCPT 231755Z AUTO 17012KT 10SM OVC019 18/15 A3009 RMK AO2
KCPT 231735Z AUTO 17011KT 10SM BKN017 OVC022 18/15 A3009 RMK AO2
KCPT 231715Z AUTO 17011KT 10SM BKN025 OVC029 17/15 A3010 RMK AO2
KCPT 231655Z AUTO 17010KT 10SM OVC029 17/15 A3010 RMK AO2
KCPT 231635Z AUTO 17012KT 10SM BKN016 OVC029 17/14 A3010 RMK AO2
KCPT 231615Z AUTO 17010G16KT 10SM BKN016 OVC029 16/14 A3011 RMK AO2
KCPT 231555Z AUTO 17011KT 10SM BKN032 OVC060 16/14 A3010 RMK AO2 LTG DSNT N
KCPT 231535Z AUTO 17014KT 10SM BKN033 OVC070 16/14 A3010 RMK AO2
KCPT 231515Z AUTO 17011G19KT 10SM OVC065 17/14 A3009 RMK AO2 LTG DSNT N AND NE
KCPT 231455Z AUTO 17013G20KT 10SM FEW021 SCT060 BKN070 16/13 A3009 RMK AO2
KCPT 231435Z AUTO 16011KT 10SM SCT043 OVC075 16/13 A3009 RMK AO2 LTG DSNT N AND NE
KCPT 231415Z AUTO 16010G16KT 10SM BKN035 OVC042 15/13 A3009 RMK AO2 LTG DSNT N AND NE
KCPT 231355Z AUTO 16012KT 10SM OVC033 15/12 A3009 RMK AO2 LTG DSNT N
KCPT 231335Z AUTO 17010KT 10SM SCT033 OVC048 15/12 A3009 RMK AO2 LTG DSNT N
KCPT 231315Z AUTO 16008KT 10SM OVC048 15/12 A3008 RMK AO2 LTG DSNT N AND SE
KCPT 231255Z AUTO 16010KT 10SM SCT038 OVC047 15/11 A3008 RMK AO2
KCPT 231235Z AUTO 16010KT 10SM OVC038 15/11 A3007 RMK AO2 LTG DSNT NW
KCPT 231215Z AUTO 16010KT 10SM SCT034 BKN040 OVC065 15/11 A3006 RMK AO2
KCPT 231155Z AUTO 16009KT 10SM BKN033 OVC042 15/11 A3006 RMK AO2 LTG DSNT SE
KCPT 231135Z AUTO 16008KT 10SM BKN042 OVC065 15/10 A3005 RMK AO2
KCPT 231115Z AUTO 16010G16KT 10SM OVC042 15/10 A3004 RMK AO2
KCPT 231055Z AUTO 16010KT 10SM BKN040 BKN048 OVC070 15/09 A3003 RMK AO2
KCPT 231035Z AUTO 16010KT 10SM FEW040 BKN047 OVC070 15/09 A3002 RMK AO2
KCPT 231015Z AUTO 17010KT 10SM OVC065 15/10 A3003 RMK AO2
KCPT 230955Z AUTO 17009KT 10SM OVC065 15/10 A3003 RMK AO2
KCPT 230935Z AUTO 17009KT 10SM OVC065 15/09 A3003 RMK AO2